Time;durP1;ratioP1;P1;durP2;ratioP2;P2;SDS_P1;SDS_P2;PMS_P1;PMS_P2;Temp;Humidity;BMP_temperature;BMP_pressure;BME280_temperature;BME280_humidity;BME280_pressure;Samples;Min_cycle;Max_cycle;Signal;HPM_P1;HPM_P2
2022/01/26 00:05:43;;;;;;;20.83;9.03;;;;;;;-4.90;70.07;96503.34;1699464;84;21033;-74
2022/01/26 00:06:16;;;;;;;22.50;10.20;;;;;;;-4.77;69.67;96496.77;1699077;84;21038;-74
2022/01/26 00:08:40;;;;;;;20.20;10.97;;;;;;;-4.74;69.64;96486.63;1698554;84;21066;-74
2022/01/26 00:11:07;;;;;;;22.10;11.77;;;;;;;-4.72;70.29;96491.88;1699211;84;21003;-74
2022/01/26 00:13:34;;;;;;;23.70;11.20;;;;;;;-4.74;70.86;96484.05;1698952;84;21085;-74
2022/01/26 00:16:04;;;;;;;20.40;9.50;;;;;;;-4.72;70.90;96486.31;1699142;84;21038;-74
2022/01/26 00:18:34;;;;;;;20.40;10.37;;;;;;;-4.80;71.71;96487.19;1699336;84;21038;-74
2022/01/26 00:21:07;;;;;;;19.17;9.27;;;;;;;-4.87;72.15;96485.48;1699086;84;21504;-74
2022/01/26 00:26:23;;;;;;;17.17;9.83;;;;;;;-4.94;73.04;96484.25;1699144;84;21077;-74
2022/01/26 00:39:40;;;;;;;20.93;10.00;;;;;;;-4.95;74.79;96473.89;1699617;84;21049;-74
2022/01/26 00:42:07;;;;;;;21.97;10.67;;;;;;;-4.97;75.28;96477.66;1699460;84;21512;-74
2022/01/26 00:44:40;;;;;;;23.27;10.67;;;;;;;-4.95;75.08;96480.33;1699223;84;21010;-74
2022/01/26 00:47:02;;;;;;;22.00;9.10;;;;;;;-5.00;75.73;96481.36;1698647;84;21512;-74
2022/01/26 00:49:29;;;;;;;21.70;10.40;;;;;;;-4.99;76.09;96479.25;1699183;84;21029;-74
2022/01/26 00:51:56;;;;;;;18.40;10.10;;;;;;;-5.01;76.05;96469.30;1700959;84;21093;-74
2022/01/26 00:54:22;;;;;;;17.80;8.80;;;;;;;-5.00;76.41;96477.09;1702035;84;21017;-74
2022/01/26 00:56:49;;;;;;;22.07;11.10;;;;;;;-5.00;76.85;96464.22;1702426;84;21006;-74
2022/01/26 00:59:16;;;;;;;19.93;10.33;;;;;;;-4.99;77.24;96470.25;1702118;84;21492;-74
2022/01/26 01:01:42;;;;;;;21.30;10.20;;;;;;;-5.00;78.14;96475.80;1702103;84;21049;-74
2022/01/26 01:04:09;;;;;;;24.00;11.10;;;;;;;-4.97;78.15;96463.91;1702419;84;21090;-74
2022/01/26 01:06:46;;;;;;;22.77;10.73;;;;;;;-4.96;78.28;96463.09;1702186;84;21077;-74
2022/01/26 01:09:04;;;;;;;25.83;11.40;;;;;;;-4.97;78.82;96466.07;1700397;84;21014;-74
2022/01/26 01:11:31;;;;;;;22.03;11.10;;;;;;;-4.95;79.12;96464.48;1702239;84;21017;-74
2022/01/26 01:13:58;;;;;;;23.43;10.73;;;;;;;-4.95;79.70;96461.02;1701985;84;21044;-74
2022/01/26 01:16:28;;;;;;;22.27;11.23;;;;;;;-4.97;80.81;96458.76;1702192;84;20986;-74
2022/01/26 01:19:27;;;;;;;25.40;12.13;;;;;;;-4.94;80.83;96453.77;1702248;84;21045;-74
2022/01/26 01:24:52;;;;;;;28.30;11.50;;;;;;;-4.94;81.70;96457.23;1702393;84;20986;-74
2022/01/26 01:29:47;;;;;;;25.73;12.40;;;;;;;-4.97;82.61;96457.06;1702133;84;21042;-74
2022/01/26 01:32:14;;;;;;;22.80;11.43;;;;;;;-5.00;83.05;96462.05;1701907;84;20995;-74
2022/01/26 01:34:40;;;;;;;27.20;12.30;;;;;;;-5.02;83.53;96470.96;1702196;84;21062;-74
2022/01/26 01:37:13;;;;;;;24.20;12.67;;;;;;;-5.05;83.86;96464.37;1701807;84;21077;-74
2022/01/26 01:39:38;;;;;;;21.33;10.73;;;;;;;-5.04;84.12;96472.97;1702299;84;21062;-75
2022/01/26 01:42:07;;;;;;;24.97;11.77;;;;;;;-5.09;84.64;96465.02;1701979;84;21516;-74
2022/01/26 01:44:36;;;;;;;27.77;13.07;;;;;;;-5.03;84.18;96467.92;1701986;84;21061;-74
2022/01/26 01:47:06;;;;;;;29.00;12.73;;;;;;;-5.00;84.21;96465.50;1702011;84;21050;-74
2022/01/26 01:49:34;;;;;;;25.40;11.17;;;;;;;-4.98;83.92;96465.60;1702197;84;21030;-74
2022/01/26 01:52:04;;;;;;;29.03;13.67;;;;;;;-4.96;83.91;96474.30;1702123;84;21026;-75
2022/01/26 01:54:31;;;;;;;22.47;11.23;;;;;;;-4.90;83.78;96475.91;1702278;84;21069;-75
2022/01/26 01:56:59;;;;;;;24.13;11.60;;;;;;;-4.95;83.89;96467.05;1702296;84;21484;-74
2022/01/26 01:59:30;;;;;;;18.73;9.27;;;;;;;-4.86;83.42;96467.97;1702007;84;21022;-74
2022/01/26 02:01:59;;;;;;;25.50;12.33;;;;;;;-4.73;83.01;96461.38;1701944;84;21579;-74
2022/01/26 02:04:25;;;;;;;25.93;12.27;;;;;;;-4.73;82.76;96458.80;1702205;84;21378;-74
2022/01/26 02:06:52;;;;;;;17.80;9.93;;;;;;;-4.68;83.01;96452.62;1702076;84;21054;-74
2022/01/26 02:09:19;;;;;;;25.00;12.33;;;;;;;-4.69;83.08;96452.12;1702503;84;21017;-74
2022/01/26 02:11:56;;;;;;;25.60;12.27;;;;;;;-4.70;82.75;96449.08;1702266;84;21511;-75
2022/01/26 02:14:36;;;;;;;21.07;10.93;;;;;;;-4.72;82.89;96446.41;1702079;84;20978;-74
2022/01/26 02:17:14;;;;;;;23.00;12.23;;;;;;;-4.74;82.85;96448.00;1701079;84;21022;-74
2022/01/26 02:49:48;;;;;;;20.97;10.93;;;;;;;-5.04;83.57;96473.88;1702172;84;21042;-73
2022/01/26 02:52:15;;;;;;;22.87;10.80;;;;;;;-5.00;83.14;96477.09;1698077;84;21042;-73
2022/01/26 03:00:10;;;;;;;21.93;10.13;;;;;;;-5.01;83.41;96474.45;1696092;84;21544;-73
2022/01/26 03:02:28;;;;;;;22.47;11.80;;;;;;;-5.00;83.33;96473.64;1692036;85;21138;-74
2022/01/26 03:04:51;;;;;;;23.23;11.40;;;;;;;-4.97;83.39;96470.34;1694349;85;21071;-73
2022/01/26 03:07:33;;;;;;;26.70;11.90;;;;;;;-4.95;83.13;96469.63;1696082;85;21014;-73
2022/01/26 03:09:58;;;;;;;23.20;10.20;;;;;;;-4.93;82.84;96468.02;1693744;85;21070;-73
2022/01/26 03:12:29;;;;;;;23.40;11.43;;;;;;;-4.91;82.78;96467.71;1694073;85;21106;-73
2022/01/26 03:14:53;;;;;;;20.77;10.20;;;;;;;-4.93;82.66;96462.88;1693879;85;21034;-74
2022/01/26 03:17:34;;;;;;;22.93;12.00;;;;;;;-5.03;83.16;96464.06;1695240;85;21053;-73
2022/01/26 03:19:49;;;;;;;22.27;11.33;;;;;;;-5.07;83.38;96463.39;1692482;85;21027;-73
2022/01/26 03:30:19;;;;;;;25.33;11.13;;;;;;;-5.10;83.56;96460.66;1695969;85;21501;-73
2022/01/26 03:35:29;;;;;;;23.93;10.53;;;;;;;-5.08;83.28;96467.19;1696206;84;20994;-73
2022/01/26 03:37:39;;;;;;;21.47;10.43;;;;;;;-5.10;83.48;96470.07;1692094;85;21070;-73
2022/01/26 03:40:14;;;;;;;24.83;11.53;;;;;;;-5.13;83.57;96465.64;1696672;84;21133;-74
2022/01/26 03:42:35;;;;;;;20.70;10.30;;;;;;;-5.14;83.54;96460.02;1695507;85;21030;-74
2022/01/26 03:45:02;;;;;;;22.47;9.83;;;;;;;-5.13;83.56;96456.64;1695998;85;21014;-73
2022/01/26 03:47:29;;;;;;;24.07;10.60;;;;;;;-5.10;83.57;96462.35;1695902;85;21007;-73
2022/01/26 03:49:55;;;;;;;20.00;9.57;;;;;;;-5.09;83.47;96457.68;1696150;85;21479;-74
2022/01/26 03:52:22;;;;;;;19.30;10.93;;;;;;;-5.13;83.51;96452.78;1701247;84;21046;-73
2022/01/26 03:54:49;;;;;;;23.43;11.70;;;;;;;-5.12;83.48;96442.95;1711687;84;20985;-73
2022/01/26 03:57:15;;;;;;;21.90;9.90;;;;;;;-5.13;83.43;96445.06;1711676;84;21022;-73
2022/01/26 03:59:42;;;;;;;20.83;10.90;;;;;;;-5.27;83.93;96444.69;1711282;84;21559;-73
2022/01/26 04:02:08;;;;;;;24.10;12.07;;;;;;;-5.27;83.95;96443.00;1711261;84;21101;-73
2022/01/26 04:04:43;;;;;;;24.50;11.40;;;;;;;-5.24;83.81;96447.45;1711511;84;21495;-73
2022/01/26 04:07:04;;;;;;;22.77;10.93;;;;;;;-5.24;83.78;96438.05;1710168;84;21154;-73
2022/01/26 04:09:30;;;;;;;25.20;11.77;;;;;;;-5.29;83.98;96439.48;1711587;84;21475;-73
2022/01/26 04:11:57;;;;;;;22.33;10.17;;;;;;;-5.27;83.91;96438.26;1711528;84;21132;-76
2022/01/26 04:14:28;;;;;;;21.57;11.23;;;;;;;-5.30;84.29;96437.69;1711519;84;21017;-72
2022/01/26 04:16:51;;;;;;;26.33;11.67;;;;;;;-5.28;84.11;96443.81;1711481;84;21020;-72
2022/01/26 04:19:19;;;;;;;24.97;11.97;;;;;;;-5.29;84.02;96444.63;1711656;84;21491;-72
2022/01/26 04:21:57;;;;;;;20.60;11.13;;;;;;;-5.29;84.19;96440.77;1711564;84;21053;-72
2022/01/26 04:24:30;;;;;;;20.23;11.40;;;;;;;-5.30;84.16;96447.98;1709836;84;21085;-73
2022/01/26 04:26:59;;;;;;;22.57;10.47;;;;;;;-5.34;84.17;96442.20;1710789;84;21065;-72
2022/01/26 04:29:26;;;;;;;31.23;11.37;;;;;;;-5.32;84.07;96447.41;1710695;84;21030;-70
2022/01/26 04:31:49;;;;;;;17.10;9.77;;;;;;;-5.34;83.97;96440.00;1710894;84;21113;-68
2022/01/26 04:34:16;;;;;;;26.87;11.07;;;;;;;-5.37;84.11;96447.55;1711645;84;21013;-69
2022/01/26 04:36:50;;;;;;;27.60;12.40;;;;;;;-5.37;84.00;96443.29;1711457;84;21069;-68
2022/01/26 04:39:16;;;;;;;20.13;9.63;;;;;;;-5.36;83.99;96447.66;1710624;84;21025;-69
2022/01/26 04:41:52;;;;;;;26.93;13.57;;;;;;;-5.38;83.84;96446.67;1711346;84;21009;-69
2022/01/26 04:44:25;;;;;;;27.50;12.97;;;;;;;-5.34;83.73;96446.06;1711064;84;21022;-69
2022/01/26 04:46:49;;;;;;;21.83;10.20;;;;;;;-5.34;83.86;96440.91;1710891;84;21464;-69
2022/01/26 04:49:16;;;;;;;21.10;11.03;;;;;;;-5.43;84.16;96439.11;1711717;84;21045;-69
2022/01/26 04:51:42;;;;;;;32.53;15.80;;;;;;;-5.38;84.14;96445.80;1711684;84;21503;-69
2022/01/26 04:54:09;;;;;;;19.87;10.83;;;;;;;-5.38;84.20;96449.25;1696772;84;21041;-69
2022/01/26 04:56:36;;;;;;;35.40;13.80;;;;;;;-5.38;83.96;96448.37;1696368;85;21017;-69
2022/01/26 04:59:04;;;;;;;28.87;13.40;;;;;;;-5.40;83.88;96444.41;1695993;84;21098;-69
2022/01/26 05:01:30;;;;;;;30.57;13.00;;;;;;;-5.45;84.27;96436.84;1696022;85;21030;-69
2022/01/26 05:03:57;;;;;;;25.93;12.77;;;;;;;-5.45;84.21;96443.27;1696054;85;21497;-69
2022/01/26 05:06:24;;;;;;;23.67;11.77;;;;;;;-5.41;84.12;96440.08;1696431;85;21058;-69
2022/01/26 05:08:50;;;;;;;25.93;11.80;;;;;;;-5.41;84.16;96445.22;1695870;84;21062;-69
2022/01/26 05:11:28;;;;;;;29.03;14.23;;;;;;;-5.40;84.10;96442.25;1696219;85;21077;-69
2022/01/26 05:13:45;;;;;;;23.40;10.23;;;;;;;-5.37;84.28;96448.44;1694061;85;21633;-69
2022/01/26 05:16:12;;;;;;;21.97;11.27;;;;;;;-5.39;84.05;96446.20;1695913;85;21002;-69
2022/01/26 05:18:38;;;;;;;23.47;9.80;;;;;;;-5.43;83.52;96444.25;1696010;85;21015;-69
2022/01/26 05:21:05;;;;;;;22.97;11.83;;;;;;;-5.41;83.32;96437.51;1696072;85;21053;-69
2022/01/26 05:23:32;;;;;;;20.80;10.43;;;;;;;-5.41;83.17;96436.63;1695954;85;20995;-69
2022/01/26 05:25:58;;;;;;;16.93;9.03;;;;;;;-5.45;83.04;96439.41;1696340;85;21461;-69
2022/01/26 05:28:24;;;;;;;22.77;12.03;;;;;;;-5.50;83.22;96435.29;1696247;85;21061;-69
2022/01/26 05:30:51;;;;;;;21.43;10.73;;;;;;;-5.48;83.15;96431.12;1696392;84;20998;-69
2022/01/26 05:33:17;;;;;;;20.00;10.33;;;;;;;-5.47;83.16;96430.72;1696288;85;21504;-69
2022/01/26 05:35:44;;;;;;;20.90;10.53;;;;;;;-5.47;83.19;96426.86;1696312;84;20995;-69
2022/01/26 05:38:10;;;;;;;20.73;10.90;;;;;;;-5.44;83.00;96421.51;1696319;84;21476;-69
2022/01/26 05:40:37;;;;;;;23.83;11.53;;;;;;;-5.41;82.89;96422.48;1696318;84;21043;-69
2022/01/26 05:43:03;;;;;;;22.03;11.73;;;;;;;-5.41;82.88;96420.80;1696236;84;21046;-68
2022/01/26 05:45:35;;;;;;;19.63;10.43;;;;;;;-5.40;82.90;96423.84;1696092;85;21033;-69
2022/01/26 05:48:02;;;;;;;21.20;10.37;;;;;;;-5.38;82.80;96423.53;1696022;85;21515;-69
2022/01/26 05:50:26;;;;;;;24.17;11.17;;;;;;;-5.37;82.79;96418.85;1695944;85;21519;-69
2022/01/26 05:52:53;;;;;;;23.37;11.60;;;;;;;-5.35;82.76;96426.27;1697881;84;21041;-69
2022/01/26 05:55:20;;;;;;;18.93;10.10;;;;;;;-5.30;82.84;96431.26;1702358;84;21515;-70
2022/01/26 05:57:46;;;;;;;22.33;10.53;;;;;;;-5.30;82.73;96436.81;1702176;84;21049;-70
2022/01/26 06:00:14;;;;;;;24.33;10.40;;;;;;;-5.32;82.67;96430.28;1701910;84;21046;-75
2022/01/26 06:02:44;;;;;;;24.33;11.80;;;;;;;-5.27;82.53;96434.40;1701539;84;21042;-77
2022/01/26 06:05:12;;;;;;;19.60;10.53;;;;;;;-5.27;82.75;96430.54;1700449;84;21042;-69
2022/01/26 06:07:38;;;;;;;20.07;10.47;;;;;;;-5.23;83.00;96435.06;1702021;84;21050;-70
2022/01/26 06:10:05;;;;;;;17.60;9.60;;;;;;;-5.20;83.07;96440.38;1701263;84;21073;-71
2022/01/26 06:12:35;;;;;;;18.23;8.77;;;;;;;-5.18;82.94;96429.77;1700248;84;21081;-67
2022/01/26 06:15:04;;;;;;;21.90;10.53;;;;;;;-5.16;83.18;96430.75;1702132;84;21031;-69
2022/01/26 06:17:30;;;;;;;22.87;10.93;;;;;;;-5.10;83.39;96433.64;1689043;84;21669;-71
2022/01/26 06:19:57;;;;;;;20.40;11.17;;;;;;;-5.06;83.40;96438.16;1675565;85;21104;-68
2022/01/26 06:22:24;;;;;;;22.80;10.13;;;;;;;-5.01;83.06;96445.73;1698798;83;21022;-68
2022/01/26 06:24:50;;;;;;;22.57;11.53;;;;;;;-5.03;83.06;96449.03;1679491;84;21049;-67
2022/01/26 06:27:17;;;;;;;20.37;10.50;;;;;;;-5.00;83.00;96447.48;1682196;85;21017;-66
2022/01/26 06:29:43;;;;;;;19.43;11.00;;;;;;;-5.00;82.83;96447.48;1683215;85;21089;-66
2022/01/26 06:32:10;;;;;;;20.50;11.53;;;;;;;-4.97;82.83;96452.33;1677635;85;21060;-68
2022/01/26 06:34:39;;;;;;;20.60;10.27;;;;;;;-4.95;82.96;96449.03;1681091;85;20994;-68
2022/01/26 06:49:49;;;;;;;21.13;12.50;;;;;;;-3.93;80.73;96431.63;1860038;77;22812;-66
2022/01/26 06:52:16;;;;;;;19.03;11.03;;;;;;;-4.14;80.82;96433.10;1831595;78;21532;-67
2022/01/26 06:54:42;;;;;;;19.87;11.37;;;;;;;-4.10;81.12;96435.04;1831079;78;21055;-68
2022/01/26 06:57:09;;;;;;;21.07;10.33;;;;;;;-4.17;81.23;96433.83;1831798;78;21034;-67
2022/01/26 06:59:36;;;;;;;19.07;8.97;;;;;;;-4.12;81.11;96426.34;1832265;78;21468;-67
2022/01/26 07:02:04;;;;;;;17.73;10.63;;;;;;;-4.21;81.20;96424.57;1832467;78;21552;-66
2022/01/26 07:04:30;;;;;;;24.97;13.53;;;;;;;-4.22;81.51;96431.83;1832028;78;21093;-71
2022/01/26 07:06:58;;;;;;;27.43;13.60;;;;;;;-4.21;81.57;96427.14;1831704;78;21012;-71
2022/01/26 07:09:24;;;;;;;24.63;14.00;;;;;;;-4.33;81.68;96427.80;1832096;78;21004;-70
2022/01/26 07:11:50;;;;;;;29.63;15.43;;;;;;;-4.34;81.57;96435.94;1831378;78;21023;-73
2022/01/26 07:19:47;;;;;;;30.50;14.87;;;;;;;-4.42;81.86;96437.24;1828279;77;21073;-77
2022/01/26 07:19:53;;;;;;;31.03;14.67;;;;;;;-4.44;82.17;96435.86;1830965;77;20936;-75
2022/01/26 07:22:16;;;;;;;32.17;16.80;;;;;;;-4.39;82.33;96438.68;1843049;78;21030;-76
2022/01/26 07:24:43;;;;;;;29.73;14.40;;;;;;;-4.37;82.29;96442.23;1846413;77;21030;-80
2022/01/26 07:27:10;;;;;;;28.67;15.43;;;;;;;-4.35;82.47;96442.79;1843497;77;21049;-79
2022/01/26 07:29:37;;;;;;;20.67;10.63;;;;;;;-4.33;82.47;96441.59;1823062;77;21467;-79
2022/01/26 07:32:06;;;;;;;21.80;10.73;;;;;;;-4.35;82.84;96442.79;1818689;78;20962;-80
2022/01/26 07:34:33;;;;;;;21.60;12.20;;;;;;;-4.25;82.97;96444.56;1820643;78;20970;-82
2022/01/26 07:37:05;;;;;;;26.83;13.53;;;;;;;-4.22;83.07;96447.30;1834583;78;21459;-81
2022/01/26 07:39:40;;;;;;;25.73;12.80;;;;;;;-4.15;82.82;96438.66;1834408;78;20983;-78
2022/01/26 07:41:58;;;;;;;22.20;12.13;;;;;;;-4.07;82.60;96440.34;1832503;78;21037;-79
2022/01/26 07:44:25;;;;;;;27.53;12.67;;;;;;;-3.99;82.31;96437.74;1835130;78;21001;-76
2022/01/26 07:46:51;;;;;;;19.87;9.27;;;;;;;-3.96;82.07;96439.17;1834538;78;21060;-80
2022/01/26 07:49:18;;;;;;;23.57;11.60;;;;;;;-3.97;81.97;96446.44;1834645;78;21014;-82
2022/01/26 07:51:47;;;;;;;21.43;12.53;;;;;;;-3.96;82.12;96447.32;1834657;78;20974;-83
2022/01/26 07:54:14;;;;;;;24.03;11.67;;;;;;;-3.94;82.13;96446.59;1833914;78;20974;-80
2022/01/26 07:56:42;;;;;;;25.43;11.47;;;;;;;-3.86;81.87;96451.25;1833973;78;21064;-77
2022/01/26 07:59:08;;;;;;;23.37;11.90;;;;;;;-3.85;81.61;96455.21;1832852;78;21073;-82
2022/01/26 08:01:35;;;;;;;23.60;12.70;;;;;;;-3.85;81.53;96447.89;1829389;78;21343;-79
2022/01/26 08:04:02;;;;;;;23.23;11.50;;;;;;;-3.77;81.49;96446.16;1825306;78;20978;-80
2022/01/26 08:06:28;;;;;;;25.07;12.73;;;;;;;-3.67;81.26;96449.20;1826914;78;21016;-76
2022/01/26 08:08:55;;;;;;;22.23;11.23;;;;;;;-3.65;81.12;96453.62;1747140;82;21444;-75
2022/01/26 08:11:21;;;;;;;18.80;10.07;;;;;;;-3.64;80.97;96454.50;1764680;81;21025;-87
2022/01/26 08:13:48;;;;;;;21.17;12.33;;;;;;;-3.62;80.88;96455.47;1763236;81;21071;-75
2022/01/26 08:16:15;;;;;;;27.43;13.30;;;;;;;-3.62;80.81;96449.91;1763298;81;20967;-83
2022/01/26 08:18:41;;;;;;;24.47;12.97;;;;;;;-3.54;80.71;96450.28;1744701;82;21532;-78
2022/01/26 08:21:08;;;;;;;27.03;13.23;;;;;;;-3.52;80.63;96461.16;1753513;81;21013;-78
2022/01/26 08:23:36;;;;;;;19.67;9.47;;;;;;;-3.48;80.50;96457.02;1746477;81;21038;-80
2022/01/26 08:26:04;;;;;;;23.50;11.73;;;;;;;-3.51;80.39;96460.33;1760836;81;21073;-82
2022/01/26 08:28:37;;;;;;;26.33;12.43;;;;;;;-3.49;80.43;96462.59;1764144;81;21522;-81
2022/01/26 08:30:59;;;;;;;24.03;12.77;;;;;;;-3.52;80.46;96470.59;1768587;81;21578;-86
2022/01/26 08:33:26;;;;;;;23.93;11.67;;;;;;;-3.56;80.57;96461.80;1794080;80;21052;-82
2022/01/26 08:35:53;;;;;;;23.33;11.10;;;;;;;-3.56;80.69;96457.05;1767417;81;20987;-83
2022/01/26 08:38:20;;;;;;;23.40;12.43;;;;;;;-3.55;80.73;96465.29;1793043;80;21581;-84
2022/01/26 08:40:47;;;;;;;28.03;12.53;;;;;;;-3.55;80.80;96459.72;1782090;80;21546;-84
2022/01/26 08:43:14;;;;;;;25.43;12.43;;;;;;;-3.50;80.72;96468.98;1787301;80;21491;-86
2022/01/26 08:45:41;;;;;;;16.43;8.07;;;;;;;-3.42;80.53;96469.35;1781023;80;21029;-82
2022/01/26 08:48:08;;;;;;;22.90;12.20;;;;;;;-3.44;80.56;96471.84;1787430;80;21041;-81
2022/01/26 08:50:35;;;;;;;32.27;14.23;;;;;;;-3.45;80.47;96470.47;1779513;79;21700;-82
2022/01/26 08:53:02;;;;;;;31.57;14.43;;;;;;;-3.47;80.54;96466.55;1746525;80;21047;-79
2022/01/26 08:55:28;;;;;;;26.23;13.13;;;;;;;-3.43;80.41;96473.60;1774325;81;21058;-77
2022/01/26 08:57:55;;;;;;;32.27;15.20;;;;;;;-3.42;80.17;96470.64;1743938;81;21089;-74
2022/01/26 09:00:21;;;;;;;28.77;15.00;;;;;;;-3.39;80.00;96475.53;1774473;81;21545;-83
2022/01/26 09:02:51;;;;;;;25.63;12.50;;;;;;;-3.41;80.02;96477.15;1744458;82;21062;-80
2022/01/26 09:05:16;;;;;;;28.07;13.73;;;;;;;-3.40;80.14;96474.16;1774023;81;21090;-75
2022/01/26 09:07:45;;;;;;;26.13;12.17;;;;;;;-3.37;80.15;96476.91;1744318;81;20991;-81
2022/01/26 09:10:12;;;;;;;28.03;12.90;;;;;;;-3.35;80.21;96476.55;1775354;80;21054;-77
2022/01/26 09:12:42;;;;;;;28.63;14.30;;;;;;;-3.26;80.01;96475.72;1745123;81;21042;-80
2022/01/26 09:15:09;;;;;;;30.97;13.50;;;;;;;-3.15;79.76;96478.44;1774299;81;21584;-83
2022/01/26 09:17:37;;;;;;;27.87;13.90;;;;;;;-3.06;79.55;96477.97;1745699;81;21515;-77
2022/01/26 09:20:07;;;;;;;28.37;14.33;;;;;;;-3.03;79.18;96470.78;1756225;81;21117;-77
2022/01/26 09:22:34;;;;;;;30.00;15.83;;;;;;;-3.02;79.10;96476.41;1752325;81;21037;-83
2022/01/26 09:25:01;;;;;;;27.60;14.27;;;;;;;-2.93;78.89;96475.56;1764331;81;21037;-86
2022/01/26 09:27:27;;;;;;;35.53;17.43;;;;;;;-3.08;78.90;96478.30;1764628;81;21137;-78
2022/01/26 09:29:54;;;;;;;33.13;16.57;;;;;;;-2.99;78.95;96480.04;1763806;81;20990;-80
2022/01/26 09:32:22;;;;;;;36.33;15.63;;;;;;;-3.00;78.92;96483.41;1764706;81;21542;-80
2022/01/26 09:34:48;;;;;;;33.03;16.07;;;;;;;-3.05;79.01;96477.15;1764877;81;20995;-78
2022/01/26 09:37:17;;;;;;;30.00;15.90;;;;;;;-3.01;78.91;96484.23;1763949;81;21093;-79
2022/01/26 09:39:45;;;;;;;32.73;17.40;;;;;;;-3.10;79.14;96478.25;1764688;81;21002;-79
2022/01/26 09:42:13;;;;;;;34.00;16.23;;;;;;;-3.13;79.42;96481.06;1764889;81;21018;-78
2022/01/26 09:44:40;;;;;;;35.10;16.47;;;;;;;-3.18;79.36;96491.58;1765181;81;21050;-78
2022/01/26 09:47:08;;;;;;;35.70;17.53;;;;;;;-3.19;79.32;96479.50;1765263;81;21002;-78
2022/01/26 09:49:36;;;;;;;30.93;15.83;;;;;;;-3.14;79.34;96479.31;1760520;81;21101;-76
2022/01/26 09:52:23;;;;;;;31.10;15.67;;;;;;;-3.03;79.29;96474.23;1742958;81;21089;-82
2022/01/26 09:54:48;;;;;;;25.03;13.63;;;;;;;-2.96;79.17;96476.30;1753032;82;21649;-82
2022/01/26 09:57:15;;;;;;;31.63;14.80;;;;;;;-2.95;78.90;96466.86;1753563;81;21021;-84
2022/01/26 09:59:42;;;;;;;29.43;15.00;;;;;;;-2.92;78.82;96468.31;1748113;81;21011;-84
2022/01/26 10:02:25;;;;;;;30.50;14.40;;;;;;;-2.94;78.82;96468.64;1768848;81;20988;-79
2022/01/26 10:05:00;;;;;;;32.10;16.65;;;;;;;-2.92;79.00;96463.15;1768307;81;20976;-82
2022/01/26 10:07:51;;;;;;;36.07;16.47;;;;;;;-2.78;78.84;96474.11;1768907;81;20996;-83
2022/01/26 10:15:32;;;;;;;33.33;16.43;;;;;;;-2.71;78.32;96470.59;1769657;81;21514;-82
2022/01/26 10:18:17;;;;;;;35.30;17.73;;;;;;;-2.62;78.45;96466.27;1769329;81;21028;-82
2022/01/26 10:20:54;;;;;;;25.47;12.93;;;;;;;-2.51;78.32;96462.46;1769489;81;21000;-83
2022/01/26 10:23:24;;;;;;;35.77;16.57;;;;;;;-2.60;78.35;96460.73;1768916;81;21506;-82
2022/01/26 10:26:08;;;;;;;35.07;15.97;;;;;;;-2.47;78.33;96461.80;1769330;81;21063;-82
2022/01/26 10:28:56;;;;;;;38.42;16.97;;;;;;;-2.42;78.02;96455.52;1769246;81;21055;-81
2022/01/26 10:31:33;;;;;;;37.67;19.47;;;;;;;-2.42;77.96;96454.22;1768839;81;21429;-82
2022/01/26 10:34:09;;;;;;;43.33;19.07;;;;;;;-2.38;77.88;96452.27;1769088;81;21024;-81
2022/01/26 10:36:44;;;;;;;36.37;19.50;;;;;;;-2.31;77.86;96451.73;1769138;81;21063;-82
2022/01/26 10:39:23;;;;;;;38.47;19.17;;;;;;;-2.23;77.89;96443.02;1768042;81;21118;-81
2022/01/26 10:41:52;;;;;;;35.87;17.10;;;;;;;-2.15;77.61;96444.23;1768766;81;21492;-80
2022/01/26 10:44:32;;;;;;;37.30;19.47;;;;;;;-2.11;77.28;96439.68;1769423;81;20973;-82
2022/01/26 10:47:03;;;;;;;38.77;19.17;;;;;;;-2.02;77.23;96435.30;1760457;81;20983;-82
2022/01/26 10:52:31;;;;;;;29.93;15.23;;;;;;;-1.83;76.71;96426.64;1795695;80;21039;-82
2022/01/26 10:54:49;;;;;;;32.85;16.17;;;;;;;-1.98;76.81;96422.58;1793103;80;21548;-82
2022/01/26 10:57:18;;;;;;;39.97;19.27;;;;;;;-1.94;77.12;96418.81;1764736;81;21004;-82
2022/01/26 10:59:48;;;;;;;43.73;21.63;;;;;;;-1.80;76.99;96417.70;1764753;81;21485;-82
2022/01/26 11:02:28;;;;;;;38.10;20.40;;;;;;;-1.68;76.67;96416.93;1765182;81;21032;-82
2022/01/26 11:04:54;;;;;;;31.67;16.23;;;;;;;-1.77;76.51;96412.23;1795435;80;21036;-81
2022/01/26 11:07:31;;;;;;;42.23;20.20;;;;;;;-1.75;76.64;96404.14;1795734;80;21028;-82
2022/01/26 11:10:03;;;;;;;38.67;20.73;;;;;;;-1.75;76.81;96401.55;1795704;80;21024;-82
2022/01/26 11:12:31;;;;;;;41.10;21.73;;;;;;;-1.69;76.70;96397.03;1795587;80;21051;-82
2022/01/26 11:15:11;;;;;;;37.93;20.07;;;;;;;-1.62;76.37;96392.59;1795788;80;20996;-82
2022/01/26 11:17:43;;;;;;;36.63;19.87;;;;;;;-1.63;76.38;96383.48;1795753;80;21103;-82
2022/01/26 11:20:30;;;;;;;33.67;17.97;;;;;;;-1.60;76.21;96384.48;1795555;80;21047;-82
2022/01/26 11:22:58;;;;;;;34.73;17.67;;;;;;;-1.54;76.29;96380.87;1794548;80;21138;-82
2022/01/26 11:25:28;;;;;;;35.13;19.23;;;;;;;-1.53;76.13;96377.45;1795711;80;21001;-82
2022/01/26 11:27:57;;;;;;;32.33;17.53;;;;;;;-1.59;76.20;96381.48;1795668;80;21510;-82
2022/01/26 11:30:31;;;;;;;37.47;19.03;;;;;;;-1.68;76.22;96386.30;1795830;80;21010;-82
2022/01/26 11:33:19;;;;;;;42.33;22.20;;;;;;;-1.72;76.46;96393.03;1795723;80;20968;-82
2022/01/26 11:35:49;;;;;;;41.43;20.90;;;;;;;-1.71;76.81;96402.97;1766858;80;21465;-82
2022/01/26 11:47:12;;;;;;;39.80;18.93;;;;;;;-1.78;77.73;96400.55;1795855;80;21470;-81
2022/01/26 11:49:46;;;;;;;36.33;17.23;;;;;;;-1.72;77.39;96398.63;1795773;80;21024;-82
2022/01/26 11:52:24;;;;;;;32.23;16.63;;;;;;;-1.71;77.12;96390.94;1798864;80;21505;-82
2022/01/26 11:54:53;;;;;;;37.17;19.27;;;;;;;-1.68;77.00;96383.71;1798415;80;21047;-82
2022/01/26 11:57:38;;;;;;;41.73;19.63;;;;;;;-1.58;77.09;96394.48;1798737;80;21039;-82
2022/01/26 12:00:13;;;;;;;41.43;21.30;;;;;;;-1.52;76.70;96395.14;1798338;80;21000;-81
2022/01/26 12:05:22;;;;;;;27.97;14.10;;;;;;;-1.61;76.70;96388.32;1798865;80;20991;-82
2022/01/26 12:08:00;;;;;;;42.07;20.73;;;;;;;-1.63;76.82;96378.31;1798555;80;21000;-82
2022/01/26 12:10:32;;;;;;;34.70;18.43;;;;;;;-1.57;77.17;96373.37;1798981;80;21474;-82
2022/01/26 12:13:06;;;;;;;46.40;21.77;;;;;;;-1.54;76.74;96370.52;1799043;80;21501;-82
2022/01/26 12:15:54;;;;;;;39.73;20.67;;;;;;;-1.49;76.85;96369.80;1798773;80;21019;-82
2022/01/26 12:33:28;;;;;;;30.50;15.77;;;;;;;-1.43;76.35;96353.23;1798900;80;21461;-82
2022/01/26 12:35:52;;;;;;;37.10;17.57;;;;;;;-1.57;76.79;96355.26;1794958;80;21016;-82
2022/01/26 12:38:25;;;;;;;32.57;16.90;;;;;;;-1.47;76.80;96354.80;1797484;80;21000;-82
2022/01/26 12:43:48;;;;;;;40.23;21.83;;;;;;;-1.39;76.66;96343.45;1798727;80;21485;-82
2022/01/26 12:46:28;;;;;;;33.17;17.53;;;;;;;-1.32;76.58;96345.47;1795389;80;21564;-83
2022/01/26 12:49:13;;;;;;;34.03;18.23;;;;;;;-1.37;76.34;96344.40;1798814;80;21023;-81
2022/01/26 12:51:51;;;;;;;35.10;17.13;;;;;;;-1.40;76.56;96342.99;1798701;80;21022;-83
2022/01/26 12:54:19;;;;;;;32.20;16.10;;;;;;;-1.44;76.63;96345.86;1798815;80;20984;-82
2022/01/26 12:56:45;;;;;;;30.07;15.37;;;;;;;-1.46;76.79;96350.50;1798665;80;21063;-81
2022/01/26 12:59:18;;;;;;;32.30;16.63;;;;;;;-1.46;76.93;96348.82;1798762;80;21560;-82
2022/01/26 13:01:47;;;;;;;35.73;17.30;;;;;;;-1.41;76.83;96350.27;1798658;80;21043;-81
2022/01/26 13:04:18;;;;;;;23.90;13.50;;;;;;;-1.33;76.69;96346.30;1798642;80;20980;-81
2022/01/26 13:06:51;;;;;;;30.70;15.73;;;;;;;-1.39;76.38;96349.50;1798906;80;21008;-82
2022/01/26 13:09:30;;;;;;;30.85;16.65;;;;;;;-1.44;76.43;96342.39;1799001;80;21031;-81
2022/01/26 13:11:59;;;;;;;30.87;16.90;;;;;;;-1.46;76.65;96337.17;1798553;80;21023;-81
2022/01/26 13:14:38;;;;;;;29.07;14.87;;;;;;;-1.48;76.75;96348.28;1798951;80;21023;-82
2022/01/26 13:17:17;;;;;;;28.10;15.43;;;;;;;-1.53;76.81;96346.39;1796843;80;21063;-82
2022/01/26 13:20:13;;;;;;;28.63;15.63;;;;;;;-1.53;77.04;96349.39;1797740;80;21023;-82
2022/01/26 13:30:46;;;;;;;33.90;17.13;;;;;;;-1.45;76.86;96351.87;1794177;80;21035;-82
2022/01/26 13:38:55;;;;;;;29.30;16.27;;;;;;;-1.41;76.84;96346.00;1763990;80;21069;-82
2022/01/26 13:41:39;;;;;;;28.43;14.23;;;;;;;-1.36;76.62;96343.18;1753839;82;21014;-82